Time;durP1;ratioP1;P1;durP2;ratioP2;P2;SDS_P1;SDS_P2;PMS_P1;PMS_P2;Temp;Humidity;BMP_temperature;BMP_pressure;BME280_temperature;BME280_humidity;BME280_pressure;Samples;Min_cycle;Max_cycle;Signal;HPM_P1;HPM_P2
2021/03/11 00:00:19;;;;;;;;;;;;;;;-2.49;60.06;101011.80;1654904;86;20285;-75
2021/03/11 00:03:05;;;;;;;;;;;;;;;-2.46;60.17;101006.01;1650915;86;20793;-75
2021/03/11 00:05:49;;;;;;;;;;;;;;;-2.42;60.22;100998.61;1641403;85;20282;-75
2021/03/11 00:08:33;;;;;;;;;;;;;;;-2.36;60.25;100998.00;1667071;86;20267;-75
2021/03/11 00:11:18;;;;;;;;;;;;;;;-2.28;60.25;100996.66;1655244;86;20525;-75
2021/03/11 00:14:02;;;;;;;;;;;;;;;-2.22;60.23;100990.98;1652925;86;20243;-75
2021/03/11 00:16:46;;;;;;;;;;;;;;;-2.14;60.19;100984.16;1657471;86;20274;-75
2021/03/11 00:19:31;;;;;;;;;;;;;;;-2.05;60.21;100979.84;1652707;86;20180;-75
2021/03/11 00:22:16;;;;;;;;;;;;;;;-1.97;60.15;100982.28;1639727;86;20285;-75
2021/03/11 00:25:00;;;;;;;;;;;;;;;-1.91;60.14;100970.27;1661991;86;20208;-75
2021/03/11 00:27:45;;;;;;;;;;;;;;;-1.87;60.08;100955.23;1647776;86;20446;-75
2021/03/11 00:30:29;;;;;;;;;;;;;;;-1.82;60.08;100946.14;1644479;86;20476;-75
2021/03/11 00:33:13;;;;;;;;;;;;;;;-1.77;60.04;100941.26;1654360;85;20168;-75
2021/03/11 00:35:58;;;;;;;;;;;;;;;-1.74;60.08;100931.23;1664170;86;20283;-75
2021/03/11 00:38:42;;;;;;;;;;;;;;;-1.68;60.05;100932.73;1640953;86;20447;-75
2021/03/11 00:41:26;;;;;;;;;;;;;;;-1.67;60.04;100928.13;1661950;85;20267;-75
2021/03/11 00:44:10;;;;;;;;;;;;;;;-1.65;60.14;100922.72;1650747;86;20275;-75
2021/03/11 00:46:54;;;;;;;;;;;;;;;-1.63;60.12;100915.17;1661825;86;20275;-75
2021/03/11 00:49:38;;;;;;;;;;;;;;;-1.60;60.14;100906.41;1638442;86;20499;-75
2021/03/11 00:52:23;;;;;;;;;;;;;;;-1.58;60.20;100908.60;1638691;86;20260;-75
2021/03/11 00:55:09;;;;;;;;;;;;;;;-1.57;60.21;100901.45;1545199;85;10000450;-75
2021/03/11 00:57:53;;;;;;;;;;;;;;;-1.57;60.23;100896.39;1645461;86;20275;-75
2021/03/11 01:00:38;;;;;;;;;;;;;;;-1.54;60.26;100896.06;1637762;87;20979;-75
2021/03/11 01:03:22;;;;;;;;;;;;;;;-1.54;60.23;100888.45;1652441;86;20287;-75
2021/03/11 01:06:06;;;;;;;;;;;;;;;-1.52;60.23;100884.70;1634491;86;20411;-75
2021/03/11 01:08:50;;;;;;;;;;;;;;;-1.51;60.27;100886.03;1645098;85;20202;-75
2021/03/11 01:11:34;;;;;;;;;;;;;;;-1.49;60.31;100886.95;1640422;85;20303;-75
2021/03/11 01:14:19;;;;;;;;;;;;;;;-1.47;60.33;100876.87;1649866;85;20248;-75
2021/03/11 01:17:03;;;;;;;;;;;;;;;-1.47;60.33;100862.52;1655286;85;20172;-75
2021/03/11 01:19:48;;;;;;;;;;;;;;;-1.43;60.35;100876.17;1664957;84;20249;-75
2021/03/11 01:22:32;;;;;;;;;;;;;;;-1.43;60.40;100868.16;1667271;85;20460;-75
2021/03/11 01:25:16;;;;;;;;;;;;;;;-1.39;60.47;100862.80;1663175;85;20255;-75
2021/03/11 01:28:00;;;;;;;;;;;;;;;-1.37;60.41;100859.91;1665817;85;20461;-75
2021/03/11 01:30:44;;;;;;;;;;;;;;;-1.38;60.40;100859.45;1673094;85;20483;-75
2021/03/11 01:33:29;;;;;;;;;;;;;;;-1.36;60.44;100856.56;1660006;85;20251;-75
2021/03/11 01:36:13;;;;;;;;;;;;;;;-1.36;60.42;100851.09;1670339;85;20195;-75
2021/03/11 01:38:57;;;;;;;;;;;;;;;-1.39;60.38;100842.10;1655107;85;20180;-75
2021/03/11 01:41:42;;;;;;;;;;;;;;;-1.39;60.36;100834.90;1673721;84;20277;-75
2021/03/11 01:44:26;;;;;;;;;;;;;;;-1.38;60.38;100829.02;1625435;87;20306;-75
2021/03/11 01:47:11;;;;;;;;;;;;;;;-1.37;60.38;100818.92;1619673;87;20310;-75
2021/03/11 01:49:55;;;;;;;;;;;;;;;-1.37;60.38;100809.19;1636391;86;20318;-75
2021/03/11 01:52:41;;;;;;;;;;;;;;;-1.38;60.38;100799.45;1680383;85;20293;-75
2021/03/11 01:55:28;;;;;;;;;;;;;;;-1.37;60.43;100793.56;1671851;84;20303;-75
2021/03/11 01:58:13;;;;;;;;;;;;;;;-1.37;60.44;100786.36;1651378;85;20350;-75
2021/03/11 02:00:58;;;;;;;;;;;;;;;-1.36;60.49;100782.61;1667618;85;20307;-74
2021/03/11 02:03:42;;;;;;;;;;;;;;;-1.35;60.50;100784.73;1654779;85;20279;-74
2021/03/11 02:06:27;;;;;;;;;;;;;;;-1.34;60.51;100778.86;1651421;84;20327;-74
2021/03/11 02:09:11;;;;;;;;;;;;;;;-1.32;60.54;100781.45;1653483;85;20326;-75
2021/03/11 02:12:32;;;;;;;;;;;;;;;-1.31;60.57;100776.83;1652355;84;20306;-75
2021/03/11 02:15:26;;;;;;;;;;;;;;;-1.31;60.59;100775.16;1661100;85;20214;-75
2021/03/11 02:18:20;;;;;;;;;;;;;;;-1.29;60.67;100774.80;1666160;85;20593;-75
2021/03/11 02:21:23;;;;;;;;;;;;;;;-1.26;60.69;100768.56;1664070;85;20613;-75
2021/03/11 02:24:28;;;;;;;;;;;;;;;-1.23;60.65;100765.27;1653232;85;20303;-75
2021/03/11 02:27:25;;;;;;;;;;;;;;;-1.19;60.72;100748.94;1627818;85;20386;-75
2021/03/11 02:30:11;;;;;;;;;;;;;;;-1.16;60.69;100743.11;1661247;85;20262;-74
2021/03/11 02:32:56;;;;;;;;;;;;;;;-1.15;60.71;100742.30;1643991;85;20194;-76
2021/03/11 02:35:42;;;;;;;;;;;;;;;-1.15;60.68;100738.08;1660499;85;20298;-76
2021/03/11 02:38:27;;;;;;;;;;;;;;;-1.13;60.69;100733.92;1666270;85;20528;-75
2021/03/11 02:41:12;;;;;;;;;;;;;;;-1.13;60.72;100725.04;1652953;85;20271;-75
2021/03/11 02:43:58;;;;;;;;;;;;;;;-1.11;60.76;100712.00;1655496;85;20294;-75
2021/03/11 02:46:43;;;;;;;;;;;;;;;-1.09;60.74;100703.17;1659305;85;20454;-75
2021/03/11 02:49:28;;;;;;;;;;;;;;;-1.08;60.78;100702.36;1651690;85;20266;-75
2021/03/11 02:52:13;;;;;;;;;;;;;;;-1.08;60.73;100693.47;1673861;85;20520;-75
2021/03/11 02:54:59;;;;;;;;;;;;;;;-1.08;60.79;100693.47;1644679;85;20281;-76
2021/03/11 02:57:43;;;;;;;;;;;;;;;-1.08;60.83;100688.40;1603895;87;20287;-76
2021/03/11 03:00:30;;;;;;;;;;;;;;;-1.07;60.84;100685.91;1672702;85;20271;-75
2021/03/11 03:03:15;;;;;;;;;;;;;;;-1.06;60.83;100678.75;1658698;85;20301;-75
2021/03/11 03:06:00;;;;;;;;;;;;;;;-1.06;60.84;100681.29;1670091;84;20314;-76
2021/03/11 03:08:46;;;;;;;;;;;;;;;-1.05;60.84;100679.62;1671057;85;20309;-74
2021/03/11 03:11:31;;;;;;;;;;;;;;;-1.04;60.86;100679.63;1643090;85;20653;-74
2021/03/11 03:14:16;;;;;;;;;;;;;;;-1.03;60.90;100677.95;1617356;87;20669;-74
2021/03/11 03:17:01;;;;;;;;;;;;;;;-1.01;60.92;100673.38;1625515;87;20310;-75
2021/03/11 03:19:46;;;;;;;;;;;;;;;-1.00;60.88;100669.17;1610726;87;20574;-75
2021/03/11 03:22:31;;;;;;;;;;;;;;;-0.98;60.91;100664.14;1624626;87;21008;-76
2021/03/11 03:25:16;;;;;;;;;;;;;;;-1.00;60.92;100655.22;1641393;86;20688;-76
2021/03/11 03:28:01;;;;;;;;;;;;;;;-1.01;60.99;100633.19;1643102;86;20274;-76
2021/03/11 03:30:45;;;;;;;;;;;;;;;-1.01;61.00;100626.84;1648557;85;20635;-76
2021/03/11 03:33:29;;;;;;;;;;;;;;;-1.03;61.06;100620.45;1673666;85;20321;-76
2021/03/11 03:36:14;;;;;;;;;;;;;;;-1.02;61.06;100616.24;1646188;85;20307;-76
2021/03/11 03:38:59;;;;;;;;;;;;;;;-1.03;61.10;100611.57;1648492;85;20559;-76
2021/03/11 03:41:46;;;;;;;;;;;;;;;-1.00;61.18;100616.74;1682701;85;20588;-76
2021/03/11 03:44:34;;;;;;;;;;;;;;;-0.98;61.17;100616.79;1673836;85;20305;-75
2021/03/11 03:47:19;;;;;;;;;;;;;;;-0.95;61.19;100616.88;1682273;85;20166;-75
2021/03/11 03:50:04;;;;;;;;;;;;;;;-0.92;61.24;100611.04;1673310;85;20258;-75
2021/03/11 03:52:49;;;;;;;;;;;;;;;-0.90;61.23;100599.25;1662902;85;20182;-75
2021/03/11 03:55:35;;;;;;;;;;;;;;;-0.87;61.24;100598.08;1675401;85;20289;-75
2021/03/11 03:58:20;;;;;;;;;;;;;;;-0.84;61.32;100593.95;1683105;85;20457;-75
2021/03/11 04:01:05;;;;;;;;;;;;;;;-0.83;61.31;100593.14;1668567;84;20204;-75
2021/03/11 04:03:51;;;;;;;;;;;;;;;-0.80;61.35;100584.34;1665189;85;20221;-75
2021/03/11 04:06:37;;;;;;;;;;;;;;;-0.77;61.35;100579.77;1679112;84;20273;-75
2021/03/11 04:09:23;;;;;;;;;;;;;;;-0.77;61.34;100569.20;1668398;84;20259;-75
2021/03/11 04:12:09;;;;;;;;;;;;;;;-0.76;61.38;100565.84;1690243;84;20260;-75
2021/03/11 04:14:54;;;;;;;;;;;;;;;-0.75;61.39;100552.34;1683585;84;20271;-75
2021/03/11 04:17:39;;;;;;;;;;;;;;;-0.74;61.42;100549.39;1647784;85;20261;-75
2021/03/11 04:20:24;;;;;;;;;;;;;;;-0.72;61.52;100550.30;1628608;85;20261;-75
2021/03/11 04:23:09;;;;;;;;;;;;;;;-0.71;61.47;100529.17;1627297;85;20254;-75
2021/03/11 04:25:53;;;;;;;;;;;;;;;-0.71;61.51;100528.76;1648192;85;20252;-75
2021/03/11 04:28:38;;;;;;;;;;;;;;;-0.70;61.59;100530.48;1645274;85;20257;-75
2021/03/11 04:31:22;;;;;;;;;;;;;;;-0.67;61.55;100530.97;1621530;87;20288;-75
2021/03/11 04:34:07;;;;;;;;;;;;;;;-0.66;61.62;100532.70;1662128;85;20168;-75
2021/03/11 04:36:52;;;;;;;;;;;;;;;-0.64;61.64;100524.71;1602463;88;20281;-75
2021/03/11 04:39:36;;;;;;;;;;;;;;;-0.62;61.60;100520.95;1648323;85;20278;-75
2021/03/11 04:42:21;;;;;;;;;;;;;;;-0.60;61.63;100510.02;1645352;85;20313;-75
2021/03/11 04:45:07;;;;;;;;;;;;;;;-0.58;61.68;100503.70;1659285;85;20310;-75
2021/03/11 04:47:52;;;;;;;;;;;;;;;-0.56;61.73;100497.85;1665928;85;20290;-75
2021/03/11 04:50:39;;;;;;;;;;;;;;;-0.54;61.73;100492.81;1662822;85;20160;-75
2021/03/11 04:53:23;;;;;;;;;;;;;;;-0.52;61.69;100492.00;1656125;85;20192;-75
2021/03/11 04:56:10;;;;;;;;;;;;;;;-0.50;61.76;100477.66;1655765;85;20411;-75
2021/03/11 04:58:55;;;;;;;;;;;;;;;-0.49;61.74;100465.42;1648404;85;20293;-75
2021/03/11 05:01:41;;;;;;;;;;;;;;;-0.48;61.70;100459.92;1647879;85;20168;-75
2021/03/11 05:04:26;;;;;;;;;;;;;;;-0.48;61.74;100463.33;1612969;87;20513;-75
2021/03/11 05:07:15;;;;;;;;;;;;;;;-0.46;61.80;100457.02;1654521;85;20290;-75
2021/03/11 05:10:00;;;;;;;;;;;;;;;-0.44;61.79;100457.51;1656155;85;20292;-75
2021/03/11 05:12:45;;;;;;;;;;;;;;;-0.42;61.78;100443.58;1643159;85;20310;-75
2021/03/11 05:15:30;;;;;;;;;;;;;;;-0.40;61.82;100440.66;1690137;84;20284;-75
2021/03/11 05:18:14;;;;;;;;;;;;;;;-0.40;61.84;100426.28;1687235;84;20304;-75
2021/03/11 05:20:59;;;;;;;;;;;;;;;-0.39;61.89;100431.81;1682709;83;20689;-74
2021/03/11 05:23:44;;;;;;;;;;;;;;;-0.38;61.88;100422.10;1684056;83;20297;-74
2021/03/11 05:26:28;;;;;;;;;;;;;;;-0.35;61.90;100416.23;1683947;83;20296;-75
2021/03/11 05:29:13;;;;;;;;;;;;;;;-0.34;61.90;100420.09;1687152;84;20536;-75
2021/03/11 05:31:58;;;;;;;;;;;;;;;-0.30;61.93;100412.13;1688497;83;20308;-74
2021/03/11 05:34:43;;;;;;;;;;;;;;;-0.28;61.95;100409.63;1686759;83;20329;-74
2021/03/11 05:37:28;;;;;;;;;;;;;;;-0.26;61.93;100407.58;1644297;85;20304;-74
2021/03/11 05:40:13;;;;;;;;;;;;;;;-0.22;61.95;100390.31;1629615;85;20310;-74
2021/03/11 05:42:58;;;;;;;;;;;;;;;-0.20;61.99;100393.75;1657055;85;20589;-74
2021/03/11 05:45:43;;;;;;;;;;;;;;;-0.18;61.98;100385.75;1626152;85;20586;-74
2021/03/11 05:48:29;;;;;;;;;;;;;;;-0.15;62.01;100376.07;1687412;83;20291;-74
2021/03/11 05:51:14;;;;;;;;;;;;;;;-0.12;61.98;100373.19;1652117;85;20265;-74
2021/03/11 05:53:59;;;;;;;;;;;;;;;-0.08;62.05;100372.44;1657377;85;20170;-74
2021/03/11 05:56:43;;;;;;;;;;;;;;;-0.05;61.99;100362.34;1657393;85;20539;-76
2021/03/11 05:59:27;;;;;;;;;;;;;;;-0.04;62.00;100355.16;1688879;83;20255;-75
2021/03/11 06:02:12;;;;;;;;;;;;;;;-0.02;62.00;100356.06;1678356;83;20191;-75
2021/03/11 06:04:57;;;;;;;;;;;;;;;0.02;62.02;100344.24;1682153;83;20290;-75
2021/03/11 06:07:46;;;;;;;;;;;;;;;0.06;62.03;100341.36;1681193;83;20489;-75
2021/03/11 06:10:30;;;;;;;;;;;;;;;0.08;62.04;100338.02;1681741;84;20388;-75
2021/03/11 06:13:15;;;;;;;;;;;;;;;0.12;62.04;100315.66;1677379;84;20296;-75
2021/03/11 06:16:02;;;;;;;;;;;;;;;0.17;62.05;100311.94;1681509;84;20271;-75
2021/03/11 06:18:49;;;;;;;;;;;;;;;0.20;62.02;100310.33;1675201;84;20326;-75
2021/03/11 06:21:34;;;;;;;;;;;;;;;0.24;62.03;100299.80;1677266;84;20251;-75
2021/03/11 06:24:18;;;;;;;;;;;;;;;0.27;62.02;100289.70;1672410;84;20260;-76
2021/03/11 06:27:03;;;;;;;;;;;;;;;0.29;62.04;100277.87;1684395;84;20570;-75
2021/03/11 06:29:48;;;;;;;;;;;;;;;0.32;62.01;100273.70;1686057;84;20515;-75
2021/03/11 06:32:53;;;;;;;;;;;;;;;0.36;62.04;100258.51;1655390;84;20294;-75
2021/03/11 06:35:38;;;;;;;;;;;;;;;0.40;62.02;100255.20;1671263;84;20295;-75
2021/03/11 06:38:29;;;;;;;;;;;;;;;0.46;62.02;100252.77;1666885;84;20609;-75
2021/03/11 06:41:14;;;;;;;;;;;;;;;0.49;62.02;100238.42;1678568;84;20634;-75
2021/03/11 06:44:01;;;;;;;;;;;;;;;0.54;61.97;100231.70;1680415;84;20468;-76
2021/03/11 06:47:03;;;;;;;;;;;;;;;0.58;61.98;100219.48;1681075;84;20477;-76
2021/03/11 06:49:59;;;;;;;;;;;;;;;0.62;61.96;100215.30;1669131;84;20259;-76
2021/03/11 06:53:03;;;;;;;;;;;;;;;0.66;61.94;100197.99;1641546;85;20558;-76
2021/03/11 06:55:47;;;;;;;;;;;;;;;0.70;61.92;100199.76;1684804;84;20540;-76
2021/03/11 06:58:32;;;;;;;;;;;;;;;0.74;61.91;100207.03;1692815;84;20280;-76
2021/03/11 07:01:17;;;;;;;;;;;;;;;0.78;61.90;100204.98;1683585;84;20588;-76
2021/03/11 07:04:02;;;;;;;;;;;;;;;0.83;61.85;100186.41;1680964;84;20318;-75
2021/03/11 07:06:46;;;;;;;;;;;;;;;0.86;61.87;100178.83;1677788;84;20321;-75
2021/03/11 07:09:41;;;;;;;;;;;;;;;0.89;61.82;100176.75;1666374;84;20303;-75
2021/03/11 07:12:26;;;;;;;;;;;;;;;0.92;61.82;100170.02;1660951;85;20338;-75
2021/03/11 07:15:12;;;;;;;;;;;;;;;0.95;61.79;100170.06;1661281;85;20355;-75
2021/03/11 07:17:57;;;;;;;;;;;;;;;0.99;61.82;100170.55;1664364;84;20305;-75
2021/03/11 07:20:42;;;;;;;;;;;;;;;1.03;61.71;100154.05;1662994;84;20291;-75
2021/03/11 07:23:28;;;;;;;;;;;;;;;1.06;61.71;100147.28;1661897;84;20592;-75
2021/03/11 07:26:13;;;;;;;;;;;;;;;1.08;61.68;100150.71;1666142;84;20282;-75
2021/03/11 07:29:00;;;;;;;;;;;;;;;1.11;61.70;100130.80;1667445;84;20269;-75
2021/03/11 07:31:46;;;;;;;;;;;;;;;1.13;61.68;100129.99;1664043;84;20479;-74
2021/03/11 07:34:35;;;;;;;;;;;;;;;1.16;61.59;100133.86;1644813;84;20186;-74
2021/03/11 07:37:19;;;;;;;;;;;;;;;1.18;61.62;100130.91;1664162;84;20301;-75
2021/03/11 07:40:04;;;;;;;;;;;;;;;1.20;61.61;100124.16;1662244;84;20183;-75
2021/03/11 07:42:49;;;;;;;;;;;;;;;1.22;61.61;100127.58;1663109;84;20267;-75
2021/03/11 07:45:33;;;;;;;;;;;;;;;1.26;61.55;100115.74;1666668;84;20263;-75
2021/03/11 07:48:17;;;;;;;;;;;;;;;1.27;61.58;100118.31;1666689;84;20465;-75
2021/03/11 07:51:03;;;;;;;;;;;;;;;1.31;61.57;100120.48;1663704;84;20308;-75
2021/03/11 07:53:47;;;;;;;;;;;;;;;1.34;61.59;100117.97;1661897;84;20299;-75
2021/03/11 07:56:32;;;;;;;;;;;;;;;1.38;61.55;100129.06;1665378;84;20293;-76
2021/03/11 07:59:17;;;;;;;;;;;;;;;1.42;61.51;100130.81;1664349;84;20303;-75
2021/03/11 08:02:05;;;;;;;;;;;;;;;1.45;61.54;100124.06;1664222;84;20528;-74
2021/03/11 08:04:49;;;;;;;;;;;;;;;1.49;61.52;100122.41;1664015;84;20587;-75
2021/03/11 08:07:34;;;;;;;;;;;;;;;1.52;61.45;100109.72;1662938;84;20308;-76
2021/03/11 08:10:20;;;;;;;;;;;;;;;1.54;61.44;100104.22;1601715;88;20565;-75
2021/03/11 08:13:14;;;;;;;;;;;;;;;1.57;61.39;100102.53;1598192;88;20298;-75
2021/03/11 08:16:01;;;;;;;;;;;;;;;1.59;61.46;100103.41;1574804;90;20309;-75
2021/03/11 08:18:47;;;;;;;;;;;;;;;1.62;61.42;100097.48;1613909;86;20578;-75
2021/03/11 08:21:38;;;;;;;;;;;;;;;1.64;61.37;100089.45;1635597;87;20310;-75
2021/03/11 08:24:43;;;;;;;;;;;;;;;1.66;61.36;100078.85;1636950;87;20335;-75
2021/03/11 08:27:34;;;;;;;;;;;;;;;1.68;61.44;100075.91;1629723;87;20513;-75
2021/03/11 08:30:41;;;;;;;;;;;;;;;1.71;61.44;100069.56;1634034;87;20319;-75
2021/03/11 08:33:29;;;;;;;;;;;;;;;1.72;61.40;100061.50;1634912;86;20681;-76
2021/03/11 08:36:25;;;;;;;;;;;;;;;1.71;61.55;100060.64;1635759;87;20313;-76
2021/03/11 08:39:32;;;;;;;;;;;;;;;1.67;61.64;100060.17;1634064;86;20289;-76
2021/03/11 08:42:42;;;;;;;;;;;;;;;1.62;61.90;100055.45;1638428;86;20336;-75
2021/03/11 08:45:40;;;;;;;;;;;;;;;1.54;62.13;100049.02;1645228;86;20260;-75
2021/03/11 08:48:24;;;;;;;;;;;;;;;1.47;62.25;100042.14;1646129;86;20172;-75
2021/03/11 08:51:12;;;;;;;;;;;;;;;1.38;62.29;100042.45;1634405;86;20163;-74
2021/03/11 08:53:59;;;;;;;;;;;;;;;1.31;62.39;100028.80;1632446;86;20262;-75
2021/03/11 08:56:44;;;;;;;;;;;;;;;1.24;62.57;100025.31;1638903;86;20254;-75
2021/03/11 08:59:47;;;;;;;;;;;;;;;1.21;62.71;100024.01;1636728;86;20496;-75
2021/03/11 09:02:32;;;;;;;;;;;;;;;1.17;62.78;100009.53;1636662;87;20258;-75
2021/03/11 09:05:21;;;;;;;;;;;;;;;1.11;63.02;99992.90;1637520;87;20263;-75
2021/03/11 09:08:11;;;;;;;;;;;;;;;1.03;63.55;99971.62;1637012;85;20254;-75
2021/03/11 09:11:12;;;;;;;;;;;;;;;0.97;63.38;99974.09;1661669;84;20275;-77
2021/03/11 09:13:57;;;;;;;;;;;;;;;0.90;63.38;99975.70;1667121;84;20476;-75
2021/03/11 09:16:42;;;;;;;;;;;;;;;0.82;63.80;99960.75;1665509;84;20369;-76
2021/03/11 09:19:38;;;;;;;;;;;;;;;0.74;63.83;99952.58;1664904;84;20428;-76
2021/03/11 09:22:28;;;;;;;;;;;;;;;0.65;64.04;99951.62;1663130;84;20256;-76
2021/03/11 09:25:21;;;;;;;;;;;;;;;0.58;64.20;99941.34;1666489;84;20170;-75
2021/03/11 09:28:10;;;;;;;;;;;;;;;0.53;64.15;99932.38;1665405;84;20263;-75
2021/03/11 09:30:54;;;;;;;;;;;;;;;0.50;64.49;99913.30;1664575;84;20656;-76
2021/03/11 09:33:38;;;;;;;;;;;;;;;0.49;64.43;99894.20;1667804;84;20267;-76
2021/03/11 09:36:25;;;;;;;;;;;;;;;0.47;64.62;99892.91;1665158;84;20252;-76
2021/03/11 09:39:10;;;;;;;;;;;;;;;0.49;64.75;99885.30;1665497;84;20481;-76
2021/03/11 09:41:55;;;;;;;;;;;;;;;0.53;65.02;99867.52;1665681;84;20275;-75
2021/03/11 09:44:45;;;;;;;;;;;;;;;0.61;64.94;99857.44;1663796;84;20299;-76
2021/03/11 09:47:30;;;;;;;;;;;;;;;0.66;65.05;99870.66;1661895;84;20327;-76
2021/03/11 09:50:15;;;;;;;;;;;;;;;0.68;65.11;99874.48;1664947;84;20311;-76
2021/03/11 09:53:00;;;;;;;;;;;;;;;0.70;65.10;99875.36;1661806;84;20605;-75
2021/03/11 09:55:45;;;;;;;;;;;;;;;0.69;65.13;99873.65;1663432;84;20304;-75
2021/03/11 09:58:30;;;;;;;;;;;;;;;0.67;65.33;99844.80;1661232;84;20488;-76
2021/03/11 10:01:27;;;;;;;;;;;;;;;0.64;65.18;99826.53;1666346;84;20342;-76
2021/03/11 10:04:17;;;;;;;;;;;;;;;0.66;65.09;99817.23;1665200;84;20295;-76
2021/03/11 10:07:02;;;;;;;;;;;;;;;0.70;65.44;99801.58;1661391;84;20312;-76
2021/03/11 10:09:49;;;;;;;;;;;;;;;0.78;65.25;99798.70;1599273;88;20272;-76
2021/03/11 10:12:37;;;;;;;;;;;;;;;0.85;65.62;99813.61;1599444;88;20564;-76
2021/03/11 10:15:21;;;;;;;;;;;;;;;0.88;65.54;99808.55;1671255;84;20342;-76
2021/03/11 10:18:09;;;;;;;;;;;;;;;0.91;65.64;99807.31;1671568;83;20318;-76
2021/03/11 10:21:04;;;;;;;;;;;;;;;0.94;65.83;99793.34;1669529;85;20308;-76
2021/03/11 10:23:51;;;;;;;;;;;;;;;0.94;65.84;99785.70;1662106;85;20400;-76
2021/03/11 10:26:35;;;;;;;;;;;;;;;0.96;65.84;99776.39;1669658;85;20533;-75
2021/03/11 10:29:21;;;;;;;;;;;;;;;0.97;65.91;99767.50;1661369;85;20614;-75
2021/03/11 10:32:06;;;;;;;;;;;;;;;1.00;66.00;99760.31;1661085;85;20209;-76
2021/03/11 10:34:51;;;;;;;;;;;;;;;1.03;65.99;99756.52;1666417;85;20293;-75
2021/03/11 10:37:37;;;;;;;;;;;;;;;1.07;66.01;99758.22;1661676;85;20311;-74
2021/03/11 10:40:26;;;;;;;;;;;;;;;1.11;66.11;99752.73;1662469;85;20308;-75
2021/03/11 10:43:22;;;;;;;;;;;;;;;1.15;66.15;99759.56;1668035;85;20343;-76
2021/03/11 10:46:09;;;;;;;;;;;;;;;1.21;66.36;99748.15;1666646;85;20315;-75
2021/03/11 10:48:53;;;;;;;;;;;;;;;1.26;66.30;99743.94;1639204;85;20306;-75
2021/03/11 10:51:38;;;;;;;;;;;;;;;1.30;66.24;99738.03;1666444;85;20292;-75
2021/03/11 10:54:30;;;;;;;;;;;;;;;1.34;66.27;99733.39;1660316;85;20331;-76
2021/03/11 10:57:19;;;;;;;;;;;;;;;1.36;66.24;99730.86;1649251;85;20297;-75
2021/03/11 11:00:08;;;;;;;;;;;;;;;1.38;66.31;99716.44;1671415;85;20468;-75
2021/03/11 11:02:53;;;;;;;;;;;;;;;1.40;66.33;99707.97;1658117;85;20267;-77
2021/03/11 11:05:37;;;;;;;;;;;;;;;1.43;66.38;99708.41;1670955;85;20201;-76
2021/03/11 11:08:22;;;;;;;;;;;;;;;1.43;66.29;99690.58;1662876;85;20491;-76
2021/03/11 11:11:06;;;;;;;;;;;;;;;1.43;66.31;99695.67;1662419;85;20468;-75
2021/03/11 11:13:51;;;;;;;;;;;;;;;1.43;66.34;99690.16;1613654;87;20262;-76
2021/03/11 11:16:36;;;;;;;;;;;;;;;1.46;66.38;99681.69;1606464;87;20282;-76
2021/03/11 11:19:20;;;;;;;;;;;;;;;1.48;66.56;99688.48;1654500;85;20272;-77
2021/03/11 11:22:05;;;;;;;;;;;;;;;1.52;66.60;99685.54;1667606;85;20272;-76
2021/03/11 11:24:50;;;;;;;;;;;;;;;1.54;66.61;99683.43;1665778;85;20287;-76
2021/03/11 11:27:34;;;;;;;;;;;;;;;1.56;66.63;99682.16;1660937;85;20598;-75
2021/03/11 11:30:20;;;;;;;;;;;;;;;1.57;66.59;99676.19;1673634;85;20261;-75
2021/03/11 11:33:04;;;;;;;;;;;;;;;1.59;66.77;99668.98;1666012;85;20166;-76
2021/03/11 11:35:50;;;;;;;;;;;;;;;1.61;66.76;99662.62;1665119;85;20293;-75
2021/03/11 11:38:35;;;;;;;;;;;;;;;1.62;66.82;99658.81;1668450;85;20470;-75
2021/03/11 11:41:19;;;;;;;;;;;;;;;1.64;66.85;99647.35;1668867;85;20392;-75
2021/03/11 11:44:04;;;;;;;;;;;;;;;1.64;66.82;99643.11;1664864;85;20248;-76
2021/03/11 11:46:49;;;;;;;;;;;;;;;1.65;66.77;99619.75;1657944;85;20284;-76
2021/03/11 11:49:34;;;;;;;;;;;;;;;1.66;67.02;99617.63;1666415;85;20166;-76
2021/03/11 11:52:19;;;;;;;;;;;;;;;1.67;66.88;99615.52;1669868;85;20332;-78
2021/03/11 11:55:05;;;;;;;;;;;;;;;1.70;67.27;99612.13;1666325;85;20299;-78
2021/03/11 11:57:50;;;;;;;;;;;;;;;1.73;67.29;99611.72;1660971;85;20319;-75
2021/03/11 12:00:35;;;;;;;;;;;;;;;1.78;67.37;99603.66;1645971;85;20344;-76
2021/03/11 12:03:19;;;;;;;;;;;;;;;1.81;67.43;99587.53;1656188;85;20331;-76
2021/03/11 12:06:04;;;;;;;;;;;;;;;1.87;67.51;99602.84;1662601;85;20355;-76
2021/03/11 12:08:49;;;;;;;;;;;;;;;1.91;67.57;99588.84;1669287;85;20289;-77
2021/03/11 12:11:34;;;;;;;;;;;;;;;1.96;67.69;99584.59;1663091;85;21068;-76
2021/03/11 12:14:18;;;;;;;;;;;;;;;2.02;67.73;99577.81;1668071;83;20489;-76
2021/03/11 12:17:03;;;;;;;;;;;;;;;2.04;67.76;99560.39;1647326;85;20288;-76
2021/03/11 12:19:47;;;;;;;;;;;;;;;2.03;67.84;99559.13;1652052;85;20261;-76
2021/03/11 12:22:32;;;;;;;;;;;;;;;2.03;67.83;99562.94;1651312;85;20277;-77
2021/03/11 12:25:16;;;;;;;;;;;;;;;2.01;67.85;99548.92;1652954;85;20291;-77
2021/03/11 12:28:02;;;;;;;;;;;;;;;1.99;67.87;99546.80;1661420;85;20680;-76
2021/03/11 12:30:47;;;;;;;;;;;;;;;1.99;67.99;99542.55;1657224;85;20287;-76
2021/03/11 12:33:31;;;;;;;;;;;;;;;1.97;68.12;99540.41;1661076;85;20313;-77
2021/03/11 12:36:16;;;;;;;;;;;;;;;1.97;68.17;99529.37;1653030;85;20590;-79
2021/03/11 12:39:00;;;;;;;;;;;;;;;1.97;68.31;99523.84;1653908;85;20298;-78
2021/03/11 12:41:45;;;;;;;;;;;;;;;1.99;68.40;99511.10;1659954;85;20441;-78
2021/03/11 12:44:29;;;;;;;;;;;;;;;1.99;68.36;99499.63;1643646;85;20301;-76
2021/03/11 12:47:15;;;;;;;;;;;;;;;1.98;68.45;99494.95;1652249;85;20554;-76
2021/03/11 12:50:00;;;;;;;;;;;;;;;1.99;68.53;99483.05;1647740;85;20505;-76
2021/03/11 12:52:45;;;;;;;;;;;;;;;2.00;68.57;99489.86;1657740;85;20324;-76
2021/03/11 12:55:30;;;;;;;;;;;;;;;2.04;68.64;99470.31;1652616;85;20308;-76
2021/03/11 12:58:15;;;;;;;;;;;;;;;2.06;68.68;99478.39;1610711;87;20303;-76
2021/03/11 13:00:59;;;;;;;;;;;;;;;2.09;68.77;99482.17;1599660;88;20352;-76
2021/03/11 13:03:43;;;;;;;;;;;;;;;2.13;68.73;99457.53;1608822;87;20307;-76
2021/03/11 13:06:28;;;;;;;;;;;;;;;2.15;68.86;99459.23;1647900;85;20308;-76
2021/03/11 13:09:12;;;;;;;;;;;;;;;2.18;68.96;99454.13;1650888;85;20317;-77
2021/03/11 13:11:57;;;;;;;;;;;;;;;2.22;68.99;99458.80;1651600;85;20328;-77
2021/03/11 13:14:41;;;;;;;;;;;;;;;2.24;69.04;99457.95;1656267;85;20563;-77
2021/03/11 13:17:26;;;;;;;;;;;;;;;2.26;69.13;99455.39;1656171;85;20329;-76
2021/03/11 13:20:11;;;;;;;;;;;;;;;2.29;69.13;99449.87;1660466;85;20218;-76
2021/03/11 13:22:56;;;;;;;;;;;;;;;2.33;69.33;99440.52;1648952;85;20332;-76
2021/03/11 13:25:42;;;;;;;;;;;;;;;2.37;69.24;99443.48;1659135;85;20341;-78
2021/03/11 13:28:27;;;;;;;;;;;;;;;2.40;69.39;99432.42;1658668;85;20305;-77
2021/03/11 13:31:11;;;;;;;;;;;;;;;2.43;69.37;99431.14;1660686;85;20473;-77
2021/03/11 13:33:55;;;;;;;;;;;;;;;2.45;69.51;99422.63;1660372;85;20266;-77
2021/03/11 13:36:40;;;;;;;;;;;;;;;2.47;69.56;99414.55;1662820;85;20273;-76
2021/03/11 13:39:24;;;;;;;;;;;;;;;2.51;69.56;99409.01;1659050;85;20449;-76
2021/03/11 13:42:09;;;;;;;;;;;;;;;2.56;69.61;99406.02;1657742;85;20282;-76
2021/03/11 13:44:56;;;;;;;;;;;;;;;2.60;69.52;99386.84;1658279;85;20274;-78
2021/03/11 13:47:40;;;;;;;;;;;;;;;2.63;69.67;99366.84;1647552;85;20507;-77
2021/03/11 13:50:25;;;;;;;;;;;;;;;2.69;69.76;99351.92;1652843;85;20322;-77
2021/03/11 13:53:10;;;;;;;;;;;;;;;2.75;69.82;99337.86;1662235;85;20344;-77
2021/03/11 13:55:54;;;;;;;;;;;;;;;2.79;69.84;99321.25;1653424;85;20287;-77
2021/03/11 13:58:39;;;;;;;;;;;;;;;2.86;69.98;99314.41;1654166;85;20365;-77
2021/03/11 14:01:24;;;;;;;;;;;;;;;2.96;70.07;99304.56;1663415;85;20300;-77
2021/03/11 14:04:08;;;;;;;;;;;;;;;3.04;70.00;99304.08;1657054;85;20292;-77
2021/03/11 14:06:53;;;;;;;;;;;;;;;3.10;70.09;99286.59;1656612;85;20366;-77
2021/03/11 14:09:37;;;;;;;;;;;;;;;3.15;70.16;99293.77;1655846;85;20286;-77
2021/03/11 14:12:22;;;;;;;;;;;;;;;3.19;70.14;99293.73;1649541;85;20322;-77
2021/03/11 14:15:07;;;;;;;;;;;;;;;3.21;70.11;99279.67;1666150;85;21099;-76
2021/03/11 14:17:52;;;;;;;;;;;;;;;3.22;70.04;99272.42;1649779;85;20324;-76
2021/03/11 14:20:37;;;;;;;;;;;;;;;3.23;70.35;99262.63;1602137;87;20561;-76
2021/03/11 14:23:21;;;;;;;;;;;;;;;3.26;70.29;99255.78;1632954;86;20301;-76